Time;durP1;ratioP1;P1;durP2;ratioP2;P2;SDS_P1;SDS_P2;PMS_P1;PMS_P2;Temp;Humidity;BMP_temperature;BMP_pressure;BME280_temperature;BME280_humidity;BME280_pressure;Samples;Min_cycle;Max_cycle;Signal;HPM_P1;HPM_P2
2020/12/23 00:00:37;;;;;;;37.75;24.77;;;;;;;;;;5051550;28;20013;-77
2020/12/23 00:03:03;;;;;;;39.10;23.92;;;;;;;;;;5051873;28;20051;-77
2020/12/23 00:05:29;;;;;;;39.88;23.75;;;;;;;;;;5051803;28;20013;-77
2020/12/23 00:07:55;;;;;;;42.47;25.02;;;;;;;;;;5052648;28;20033;-77
2020/12/23 00:10:21;;;;;;;40.90;25.08;;;;;;;;;;5051612;28;20032;-77
2020/12/23 00:12:47;;;;;;;41.53;25.15;;;;;;;;;;5052669;28;20020;-77
2020/12/23 00:15:13;;;;;;;42.25;25.42;;;;;;;;;;5051456;28;20021;-77
2020/12/23 00:17:39;;;;;;;38.92;23.05;;;;;;;;;;5052637;28;20445;-77
2020/12/23 00:20:05;;;;;;;44.13;26.15;;;;;;;;;;5051384;28;20017;-76
2020/12/23 00:22:31;;;;;;;47.80;27.73;;;;;;;;;;5051384;28;20071;-78
2020/12/23 00:24:57;;;;;;;41.25;26.10;;;;;;;;;;5052571;28;20353;-79
2020/12/23 00:27:23;;;;;;;48.20;27.40;;;;;;;;;;5050932;28;20025;-78
2020/12/23 00:29:50;;;;;;;43.15;26.35;;;;;;;;;;5050884;28;20044;-78
2020/12/23 00:32:17;;;;;;;49.63;27.40;;;;;;;;;;5051205;28;20017;-78
2020/12/23 00:34:43;;;;;;;50.35;27.75;;;;;;;;;;5051041;28;20077;-78
2020/12/23 00:37:09;;;;;;;49.47;28.73;;;;;;;;;;5051259;28;20119;-78
2020/12/23 00:39:35;;;;;;;39.80;24.13;;;;;;;;;;5052280;28;20553;-78
2020/12/23 00:42:02;;;;;;;51.20;28.77;;;;;;;;;;5051148;28;20369;-78
2020/12/23 00:44:28;;;;;;;57.30;30.20;;;;;;;;;;5051135;28;20021;-78
2020/12/23 00:46:54;;;;;;;58.58;32.10;;;;;;;;;;5049504;28;20378;-78
2020/12/23 00:49:20;;;;;;;62.50;32.25;;;;;;;;;;5052698;28;20028;-78
2020/12/23 00:51:46;;;;;;;56.10;31.88;;;;;;;;;;5050836;28;20021;-78
2020/12/23 00:54:12;;;;;;;58.70;30.90;;;;;;;;;;5050973;28;20421;-77
2020/12/23 00:56:38;;;;;;;53.58;27.90;;;;;;;;;;5050451;28;20072;-76
2020/12/23 00:59:04;;;;;;;52.95;28.30;;;;;;;;;;5052245;28;20081;-76
2020/12/23 01:01:30;;;;;;;58.13;29.02;;;;;;;;;;5050987;28;20089;-76
2020/12/23 01:03:56;;;;;;;59.00;30.45;;;;;;;;;;5050708;28;20690;-75
2020/12/23 01:06:22;;;;;;;62.72;31.33;;;;;;;;;;5052096;28;20028;-75
2020/12/23 01:08:48;;;;;;;60.28;30.30;;;;;;;;;;5050606;28;20067;-75
2020/12/23 01:11:14;;;;;;;57.65;29.58;;;;;;;;;;5050800;28;20476;-75
2020/12/23 01:13:40;;;;;;;49.60;25.88;;;;;;;;;;5051976;28;20393;-76
2020/12/23 01:16:06;;;;;;;56.75;28.05;;;;;;;;;;5050808;28;20017;-78
2020/12/23 01:18:32;;;;;;;58.05;30.88;;;;;;;;;;5052101;28;20063;-77
2020/12/23 01:20:58;;;;;;;62.55;31.92;;;;;;;;;;5050337;28;20017;-77
2020/12/23 01:23:24;;;;;;;57.13;30.27;;;;;;;;;;5050725;28;20025;-77
2020/12/23 01:25:51;;;;;;;50.58;27.65;;;;;;;;;;5050394;28;20024;-77
2020/12/23 01:28:17;;;;;;;55.65;28.83;;;;;;;;;;5050692;28;20032;-76
2020/12/23 01:30:43;;;;;;;63.53;31.02;;;;;;;;;;5051704;28;20052;-77
2020/12/23 01:33:09;;;;;;;56.85;29.27;;;;;;;;;;5052010;28;20013;-77
2020/12/23 01:35:35;;;;;;;57.13;30.55;;;;;;;;;;5050378;28;20071;-77
2020/12/23 01:38:01;;;;;;;61.17;30.45;;;;;;;;;;5050370;28;20366;-77
2020/12/23 01:40:27;;;;;;;71.65;35.22;;;;;;;;;;5050532;28;20021;-77
2020/12/23 01:42:53;;;;;;;62.03;32.38;;;;;;;;;;5050352;28;20087;-77
2020/12/23 01:45:19;;;;;;;55.67;27.20;;;;;;;;;;5050531;28;20409;-78
2020/12/23 01:47:45;;;;;;;62.55;30.50;;;;;;;;;;5050271;28;20114;-78
2020/12/23 01:50:12;;;;;;;87.25;37.67;;;;;;;;;;5051824;28;20013;-78
2020/12/23 01:52:38;;;;;;;66.53;31.80;;;;;;;;;;5051798;28;20017;-78
2020/12/23 01:55:05;;;;;;;73.57;34.90;;;;;;;;;;5052039;28;20027;-78
2020/12/23 01:57:31;;;;;;;68.65;31.45;;;;;;;;;;5052171;28;20021;-77
2020/12/23 01:59:57;;;;;;;67.10;31.17;;;;;;;;;;5053856;28;20314;-76
2020/12/23 02:02:30;;;;;;;66.18;30.65;;;;;;;;;;5054058;28;20032;-77
2020/12/23 02:04:57;;;;;;;68.53;32.25;;;;;;;;;;5055173;28;20013;-77
2020/12/23 02:07:24;;;;;;;64.10;32.17;;;;;;;;;;5053863;28;20540;-77
2020/12/23 02:09:51;;;;;;;75.65;32.33;;;;;;;;;;5054736;28;20448;-76
2020/12/23 02:12:17;;;;;;;87.70;37.35;;;;;;;;;;5053647;28;20024;-77
2020/12/23 02:14:44;;;;;;;65.00;31.13;;;;;;;;;;5053488;28;20024;-77
2020/12/23 02:17:10;;;;;;;78.53;37.25;;;;;;;;;;5054978;28;20028;-77
2020/12/23 02:19:49;;;;;;;79.00;37.45;;;;;;;;;;5053623;28;20017;-77
2020/12/23 02:22:35;;;;;;;78.35;35.58;;;;;;;;;;5053747;28;20104;-76
2020/12/23 02:25:01;;;;;;;84.55;37.08;;;;;;;;;;5054804;28;20025;-77
2020/12/23 02:27:28;;;;;;;81.20;35.67;;;;;;;;;;5053553;28;20033;-77
2020/12/23 02:29:55;;;;;;;85.57;35.97;;;;;;;;;;5053063;28;20560;-76
2020/12/23 02:32:21;;;;;;;83.18;35.55;;;;;;;;;;5053575;28;20020;-76
2020/12/23 02:34:48;;;;;;;87.10;39.13;;;;;;;;;;5053354;28;20071;-76
2020/12/23 02:37:14;;;;;;;87.57;37.28;;;;;;;;;;5054753;28;20031;-76
2020/12/23 02:39:41;;;;;;;96.80;38.60;;;;;;;;;;5054660;28;20450;-76
2020/12/23 02:42:08;;;;;;;90.70;37.22;;;;;;;;;;5054643;28;20024;-76
2020/12/23 02:44:34;;;;;;;103.70;38.88;;;;;;;;;;5053195;28;20021;-76
2020/12/23 02:47:01;;;;;;;74.43;34.40;;;;;;;;;;5054450;28;20109;-76
2020/12/23 02:49:28;;;;;;;90.80;36.63;;;;;;;;;;5053109;28;20048;-76
2020/12/23 02:51:54;;;;;;;109.07;43.50;;;;;;;;;;5052926;28;20067;-77
2020/12/23 02:54:20;;;;;;;121.72;39.47;;;;;;;;;;5053116;28;20066;-77
2020/12/23 02:56:46;;;;;;;137.75;43.25;;;;;;;;;;5053820;28;20017;-77
2020/12/23 02:59:12;;;;;;;200.18;44.85;;;;;;;;;;5053023;28;20457;-77
2020/12/23 03:01:39;;;;;;;108.68;39.88;;;;;;;;;;5054507;28;20096;-76
2020/12/23 03:04:05;;;;;;;96.13;39.35;;;;;;;;;;5052769;28;20021;-77
2020/12/23 03:06:32;;;;;;;101.85;40.72;;;;;;;;;;5053869;28;20435;-76
2020/12/23 03:08:58;;;;;;;144.10;41.38;;;;;;;;;;5053335;28;20016;-76
2020/12/23 03:11:24;;;;;;;148.60;44.00;;;;;;;;;;5053920;28;20027;-76
2020/12/23 03:13:50;;;;;;;104.30;40.58;;;;;;;;;;5054129;28;20024;-77
2020/12/23 03:16:16;;;;;;;129.18;41.53;;;;;;;;;;5054254;28;20055;-77
2020/12/23 03:18:42;;;;;;;140.85;40.40;;;;;;;;;;5053999;28;20017;-77
2020/12/23 03:21:09;;;;;;;107.45;41.75;;;;;;;;;;5053933;28;20440;-78
2020/12/23 03:23:36;;;;;;;217.82;42.22;;;;;;;;;;5052513;28;20453;-77
2020/12/23 03:26:02;;;;;;;103.22;36.90;;;;;;;;;;5053342;28;20013;-77
2020/12/23 03:28:28;;;;;;;118.20;38.10;;;;;;;;;;5053755;28;20492;-76
2020/12/23 03:30:54;;;;;;;122.82;45.33;;;;;;;;;;5053382;28;20045;-77
2020/12/23 03:33:20;;;;;;;97.70;39.13;;;;;;;;;;5052385;28;20074;-76
2020/12/23 03:35:46;;;;;;;156.13;44.17;;;;;;;;;;5052097;28;20056;-77
2020/12/23 03:38:12;;;;;;;80.68;32.17;;;;;;;;;;5052244;28;20032;-77
2020/12/23 03:40:38;;;;;;;133.48;43.45;;;;;;;;;;5052149;28;20021;-76
2020/12/23 03:43:04;;;;;;;100.55;36.78;;;;;;;;;;5053213;28;20017;-77
2020/12/23 03:45:30;;;;;;;133.93;40.33;;;;;;;;;;5052086;28;20016;-76
2020/12/23 03:47:56;;;;;;;283.02;52.60;;;;;;;;;;5051729;28;20377;-77
2020/12/23 03:50:23;;;;;;;148.90;45.45;;;;;;;;;;5053546;28;20021;-76
2020/12/23 03:52:49;;;;;;;319.38;48.83;;;;;;;;;;5051795;28;20017;-76
2020/12/23 03:55:15;;;;;;;225.15;51.33;;;;;;;;;;5051891;28;20421;-76
2020/12/23 03:57:41;;;;;;;176.35;41.20;;;;;;;;;;5051901;28;20025;-76
2020/12/23 04:00:08;;;;;;;323.77;51.33;;;;;;;;;;5051622;28;20025;-77
2020/12/23 04:02:34;;;;;;;186.48;43.33;;;;;;;;;;5052916;28;20017;-77
2020/12/23 04:05:00;;;;;;;212.38;46.15;;;;;;;;;;5052871;28;20021;-77
2020/12/23 04:07:26;;;;;;;174.57;44.40;;;;;;;;;;5051639;28;20476;-77
2020/12/23 04:09:52;;;;;;;336.02;52.15;;;;;;;;;;5051444;28;20017;-76
2020/12/23 04:12:18;;;;;;;223.65;47.28;;;;;;;;;;5051634;28;20082;-77
2020/12/23 04:14:44;;;;;;;529.75;62.03;;;;;;;;;;5053098;28;20029;-76
2020/12/23 04:17:10;;;;;;;137.63;42.88;;;;;;;;;;5051314;28;20021;-77
2020/12/23 04:19:36;;;;;;;149.35;46.60;;;;;;;;;;5051506;28;20024;-76
2020/12/23 04:22:02;;;;;;;66.75;28.02;;;;;;;;;;5050953;28;20017;-77
2020/12/23 04:24:28;;;;;;;238.13;48.03;;;;;;;;;;5051318;28;20108;-76
2020/12/23 04:26:54;;;;;;;92.25;32.75;;;;;;;;;;5052429;28;20115;-77
2020/12/23 04:29:20;;;;;;;130.82;35.53;;;;;;;;;;5052390;28;20071;-77
2020/12/23 04:31:46;;;;;;;107.13;38.58;;;;;;;;;;5050729;28;20037;-77
2020/12/23 04:34:12;;;;;;;125.50;40.97;;;;;;;;;;5052561;28;20029;-77
2020/12/23 04:36:38;;;;;;;110.28;40.78;;;;;;;;;;5052532;28;20366;-78
2020/12/23 04:39:05;;;;;;;115.15;42.38;;;;;;;;;;5050916;28;20040;-77
2020/12/23 04:41:34;;;;;;;129.43;44.92;;;;;;;;;;5051157;28;20024;-78
2020/12/23 04:44:01;;;;;;;124.13;43.15;;;;;;;;;;5050793;28;20116;-77
2020/12/23 04:46:29;;;;;;;109.72;39.20;;;;;;;;;;5050949;28;20100;-77
2020/12/23 04:48:58;;;;;;;139.18;39.92;;;;;;;;;;5051708;28;20350;-76
2020/12/23 04:51:31;;;;;;;135.48;41.00;;;;;;;;;;5050905;28;20025;-76
2020/12/23 04:53:58;;;;;;;98.43;38.17;;;;;;;;;;5050657;28;20067;-76
2020/12/23 04:56:26;;;;;;;106.43;40.63;;;;;;;;;;5050856;28;20044;-76
2020/12/23 04:58:53;;;;;;;104.07;37.97;;;;;;;;;;5051960;28;20029;-77
2020/12/23 05:01:19;;;;;;;87.97;38.33;;;;;;;;;;5050489;28;20021;-77
2020/12/23 05:03:45;;;;;;;93.70;35.60;;;;;;;;;;5050963;28;20052;-76
2020/12/23 05:06:12;;;;;;;93.28;36.72;;;;;;;;;;5050516;28;20403;-76
2020/12/23 05:08:38;;;;;;;94.25;37.60;;;;;;;;;;5050793;28;20131;-76
2020/12/23 05:11:07;;;;;;;96.40;35.47;;;;;;;;;;5051851;28;20025;-76
2020/12/23 05:13:34;;;;;;;114.37;38.70;;;;;;;;;;5052071;28;20020;-76
2020/12/23 05:16:00;;;;;;;84.80;36.40;;;;;;;;;;5051764;28;20400;-77
2020/12/23 05:18:31;;;;;;;77.88;32.30;;;;;;;;;;5050723;28;20526;-77
2020/12/23 05:20:57;;;;;;;89.07;32.25;;;;;;;;;;5051664;28;20123;-77
2020/12/23 05:23:24;;;;;;;72.82;31.88;;;;;;;;;;5050716;28;20018;-77
2020/12/23 05:25:50;;;;;;;69.38;31.30;;;;;;;;;;5050555;28;20416;-77
2020/12/23 05:28:16;;;;;;;74.97;30.92;;;;;;;;;;5050364;28;20032;-77
2020/12/23 05:30:43;;;;;;;68.65;31.63;;;;;;;;;;5050517;28;20068;-76
2020/12/23 05:33:09;;;;;;;68.80;29.88;;;;;;;;;;5051766;28;20017;-77
2020/12/23 05:35:37;;;;;;;62.50;28.83;;;;;;;;;;5055815;28;20021;-77
2020/12/23 05:38:03;;;;;;;62.88;28.75;;;;;;;;;;5055513;28;20476;-77
2020/12/23 05:40:30;;;;;;;57.17;27.55;;;;;;;;;;5055746;28;20021;-77
2020/12/23 05:42:56;;;;;;;56.80;26.20;;;;;;;;;;5054173;28;20067;-78
2020/12/23 05:45:22;;;;;;;55.85;26.33;;;;;;;;;;5055638;28;20013;-77
2020/12/23 05:47:52;;;;;;;51.58;25.90;;;;;;;;;;5054201;28;20025;-77
2020/12/23 05:50:18;;;;;;;49.78;22.40;;;;;;;;;;5054265;28;20059;-78
2020/12/23 05:52:46;;;;;;;40.97;21.67;;;;;;;;;;5055506;28;20052;-78
2020/12/23 05:55:16;;;;;;;43.13;22.55;;;;;;;;;;5053956;28;20029;-78
2020/12/23 05:57:42;;;;;;;42.40;22.80;;;;;;;;;;5055383;28;20020;-78
2020/12/23 06:00:08;;;;;;;39.38;19.95;;;;;;;;;;5053809;28;20017;-77
2020/12/23 06:02:38;;;;;;;33.63;17.63;;;;;;;;;;5055418;28;20104;-75
2020/12/23 06:05:04;;;;;;;31.50;18.47;;;;;;;;;;5053843;28;20070;-75
2020/12/23 06:07:32;;;;;;;26.27;15.50;;;;;;;;;;5053828;28;20063;-75
2020/12/23 06:09:59;;;;;;;26.85;16.13;;;;;;;;;;5053350;28;20105;-76
2020/12/23 06:12:25;;;;;;;23.52;13.00;;;;;;;;;;5055109;28;20021;-75
2020/12/23 06:15:00;;;;;;;19.88;12.73;;;;;;;;;;5053813;28;20021;-75
2020/12/23 06:17:27;;;;;;;24.33;13.05;;;;;;;;;;5054996;28;20067;-76
2020/12/23 06:19:55;;;;;;;24.42;14.45;;;;;;;;;;5053730;28;20031;-75
2020/12/23 06:22:23;;;;;;;22.83;14.70;;;;;;;;;;5053310;28;20119;-76
2020/12/23 06:24:49;;;;;;;17.63;11.50;;;;;;;;;;5053408;28;20028;-76
2020/12/23 06:27:15;;;;;;;17.30;11.77;;;;;;;;;;5053310;28;20438;-76
2020/12/23 06:29:42;;;;;;;21.85;14.02;;;;;;;;;;5053566;28;20122;-76
2020/12/23 06:32:09;;;;;;;23.05;14.63;;;;;;;;;;5053125;28;20040;-76
2020/12/23 06:34:39;;;;;;;26.27;15.07;;;;;;;;;;5053413;28;20021;-78
2020/12/23 06:37:18;;;;;;;25.58;16.17;;;;;;;;;;5053102;28;20445;-78
2020/12/23 06:39:45;;;;;;;27.13;15.98;;;;;;;;;;5053394;28;20024;-78
2020/12/23 06:42:11;;;;;;;27.83;15.77;;;;;;;;;;5053063;28;20056;-78
2020/12/23 06:44:43;;;;;;;29.25;17.48;;;;;;;;;;5053074;28;20024;-78
2020/12/23 06:47:22;;;;;;;33.33;18.58;;;;;;;;;;5052963;28;20037;-78
2020/12/23 06:50:03;;;;;;;25.10;16.25;;;;;;;;;;5053169;28;20021;-78
2020/12/23 06:52:30;;;;;;;32.80;19.27;;;;;;;;;;5054716;28;20021;-78
2020/12/23 06:55:23;;;;;;;26.65;16.52;;;;;;;;;;5053009;28;20071;-78
2020/12/23 06:57:49;;;;;;;33.92;20.25;;;;;;;;;;5051742;28;20060;-77
2020/12/23 07:00:24;;;;;;;30.05;19.52;;;;;;;;;;5053908;28;20063;-77
2020/12/23 07:02:51;;;;;;;37.00;23.15;;;;;;;;;;5052910;28;20369;-77
2020/12/23 07:05:23;;;;;;;32.88;20.40;;;;;;;;;;5053870;28;20017;-78
2020/12/23 07:07:50;;;;;;;34.70;20.23;;;;;;;;;;5052635;28;20048;-76
2020/12/23 07:10:17;;;;;;;34.58;20.80;;;;;;;;;;5052451;28;20032;-76
2020/12/23 07:12:51;;;;;;;35.28;23.42;;;;;;;;;;5052751;28;20013;-77
2020/12/23 07:15:43;;;;;;;35.67;22.77;;;;;;;;;;5053802;28;20465;-76
2020/12/23 07:18:10;;;;;;;33.17;22.50;;;;;;;;;;5044243;28;20029;-77
2020/12/23 07:20:41;;;;;;;31.05;20.08;;;;;;;;;;5053952;28;20380;-76
2020/12/23 07:23:07;;;;;;;;;;;;;;;;;;5054054;28;20021;-76
2020/12/23 07:25:47;;;;;;;35.00;21.98;;;;;;;;;;5052299;28;19908;-77
2020/12/23 07:28:15;;;;;;;35.15;22.23;;;;;;;;;;5053391;28;20025;-76
2020/12/23 07:30:41;;;;;;;35.03;22.85;;;;;;;;;;5053425;28;20120;-76
2020/12/23 07:33:07;;;;;;;33.03;20.83;;;;;;;;;;5052038;28;20067;-77
2020/12/23 07:35:34;;;;;;;29.48;19.27;;;;;;;;;;5053570;28;20017;-77
2020/12/23 07:38:01;;;;;;;33.42;21.00;;;;;;;;;;5053296;28;20021;-77
2020/12/23 07:40:28;;;;;;;36.38;21.75;;;;;;;;;;5052260;28;20033;-76
2020/12/23 07:42:56;;;;;;;28.45;17.65;;;;;;;;;;5052157;28;20028;-78
2020/12/23 07:45:22;;;;;;;30.50;19.20;;;;;;;;;;5051872;28;20020;-77
2020/12/23 07:47:54;;;;;;;26.75;19.20;;;;;;;;;;5052091;28;20068;-76
2020/12/23 07:50:20;;;;;;;28.98;18.15;;;;;;;;;;5051845;28;20025;-76
2020/12/23 07:52:46;;;;;;;25.27;16.33;;;;;;;;;;5052039;28;20017;-76
2020/12/23 07:55:16;;;;;;;25.23;16.73;;;;;;;;;;5052587;28;20017;-76
2020/12/23 07:57:42;;;;;;;14.30;8.73;;;;;;;;;;5051898;28;20021;-76
2020/12/23 08:00:09;;;;;;;15.68;11.75;;;;;;;;;;5051646;28;20079;-75
2020/12/23 08:02:35;;;;;;;28.25;16.52;;;;;;;;;;5051940;28;20023;-76
2020/12/23 08:05:02;;;;;;;25.08;16.92;;;;;;;;;;5051539;28;20021;-76
2020/12/23 08:07:28;;;;;;;21.10;15.25;;;;;;;;;;5051667;28;20540;-76
2020/12/23 08:09:54;;;;;;;23.38;15.77;;;;;;;;;;5050751;28;20311;-76
2020/12/23 08:12:20;;;;;;;23.15;15.43;;;;;;;;;;5069947;28;20017;-76
2020/12/23 08:14:47;;;;;;;24.67;16.98;;;;;;;;;;5071266;28;20024;-77
2020/12/23 08:17:25;;;;;;;23.52;15.75;;;;;;;;;;5072424;28;20476;-76
2020/12/23 08:20:06;;;;;;;22.05;15.80;;;;;;;;;;5072856;28;20113;-75
2020/12/23 08:22:33;;;;;;;21.33;14.05;;;;;;;;;;5071547;28;20111;-77
2020/12/23 08:25:00;;;;;;;25.13;16.20;;;;;;;;;;5065199;28;20075;-78
2020/12/23 08:27:27;;;;;;;22.38;14.93;;;;;;;;;;5051264;28;20037;-78
2020/12/23 08:29:53;;;;;;;24.23;15.25;;;;;;;;;;5052514;28;20457;-77
2020/12/23 08:32:22;;;;;;;18.52;14.23;;;;;;;;;;5052239;28;20074;-77
2020/12/23 08:34:48;;;;;;;21.88;14.15;;;;;;;;;;5061773;28;20388;-77
2020/12/23 08:37:22;;;;;;;22.50;15.35;;;;;;;;;;5058467;28;20036;-77
2020/12/23 08:39:52;;;;;;;21.58;14.63;;;;;;;;;;5059799;28;20019;-78
2020/12/23 08:42:19;;;;;;;19.98;13.73;;;;;;;;;;5060680;28;20008;-78
2020/12/23 08:44:45;;;;;;;17.83;12.07;;;;;;;;;;5059844;28;20067;-77
2020/12/23 08:47:12;;;;;;;17.20;13.20;;;;;;;;;;5058621;28;20020;-76
2020/12/23 08:49:44;;;;;;;16.58;12.52;;;;;;;;;;5060896;28;20021;-78
2020/12/23 08:52:17;;;;;;;15.45;11.23;;;;;;;;;;5058097;28;20016;-78
2020/12/23 08:54:44;;;;;;;13.38;10.32;;;;;;;;;;5059331;28;20016;-78
2020/12/23 08:57:11;;;;;;;16.33;10.98;;;;;;;;;;5058766;28;20016;-78
2020/12/23 08:59:40;;;;;;;14.68;9.30;;;;;;;;;;5060613;28;20020;-77
2020/12/23 09:02:10;;;;;;;15.10;9.88;;;;;;;;;;5055263;28;20021;-76
2020/12/23 09:04:36;;;;;;;13.70;11.20;;;;;;;;;;5071378;28;20021;-74
2020/12/23 09:07:02;;;;;;;12.80;9.95;;;;;;;;;;5069766;28;20048;-77
2020/12/23 09:09:28;;;;;;;14.05;9.98;;;;;;;;;;5075357;28;20024;-77
2020/12/23 09:11:56;;;;;;;13.85;9.50;;;;;;;;;;5074553;28;20070;-76
2020/12/23 09:14:30;;;;;;;13.80;9.18;;;;;;;;;;5074321;28;20035;-77
2020/12/23 09:16:57;;;;;;;12.50;9.07;;;;;;;;;;5074135;28;20479;-77
2020/12/23 09:19:43;;;;;;;12.65;8.88;;;;;;;;;;5073849;28;20020;-77
2020/12/23 09:22:09;;;;;;;11.95;8.25;;;;;;;;;;5075381;28;20021;-76
2020/12/23 09:24:35;;;;;;;10.85;7.40;;;;;;;;;;5069437;28;20021;-77
2020/12/23 09:27:02;;;;;;;18.15;9.23;;;;;;;;;;5055093;28;20029;-77
2020/12/23 09:29:43;;;;;;;13.07;7.65;;;;;;;;;;5055550;28;20032;-77
2020/12/23 09:32:09;;;;;;;11.23;8.13;;;;;;;;;;5053895;28;20036;-77
2020/12/23 09:34:35;;;;;;;11.32;8.30;;;;;;;;;;5054146;28;20445;-77
2020/12/23 09:37:01;;;;;;;10.60;6.95;;;;;;;;;;5053758;28;20441;-77
2020/12/23 09:39:27;;;;;;;10.20;7.15;;;;;;;;;;5055211;28;20104;-79
2020/12/23 09:42:00;;;;;;;10.48;6.55;;;;;;;;;;5069578;28;20023;-78
2020/12/23 09:44:26;;;;;;;11.98;6.78;;;;;;;;;;5072678;28;20170;-78
2020/12/23 09:46:52;;;;;;;9.68;5.95;;;;;;;;;;5073370;28;20402;-77
2020/12/23 09:49:18;;;;;;;10.13;7.10;;;;;;;;;;5073314;28;20016;-78
2020/12/23 09:51:48;;;;;;;7.32;4.85;;;;;;;;;;5074633;28;20031;-76
2020/12/23 09:54:14;;;;;;;8.43;5.82;;;;;;;;;;5073059;28;20021;-77
2020/12/23 09:56:50;;;;;;;7.70;5.45;;;;;;;;;;5074426;28;20028;-77
2020/12/23 09:59:16;;;;;;;9.02;6.22;;;;;;;;;;5074380;28;20441;-77
2020/12/23 10:01:43;;;;;;;8.20;4.72;;;;;;;;;;5071942;28;20050;-77
2020/12/23 10:04:09;;;;;;;11.60;6.18;;;;;;;;;;5074223;28;20016;-77
2020/12/23 10:06:35;;;;;;;9.15;4.53;;;;;;;;;;5071518;28;20029;-77
2020/12/23 10:09:01;;;;;;;7.55;5.05;;;;;;;;;;5074007;28;20016;-77
2020/12/23 10:11:27;;;;;;;7.65;4.25;;;;;;;;;;5072959;28;20373;-77
2020/12/23 10:13:53;;;;;;;7.40;4.38;;;;;;;;;;5072884;28;20017;-77
2020/12/23 10:16:19;;;;;;;8.55;4.95;;;;;;;;;;5073204;28;20449;-76
2020/12/23 10:18:45;;;;;;;8.23;4.60;;;;;;;;;;5073241;28;20027;-77
2020/12/23 10:21:11;;;;;;;8.18;4.97;;;;;;;;;;5074736;28;20013;-77
2020/12/23 10:23:37;;;;;;;6.22;3.50;;;;;;;;;;5073678;28;20016;-77
2020/12/23 10:26:03;;;;;;;6.95;4.70;;;;;;;;;;5056651;28;20469;-79
2020/12/23 10:28:29;;;;;;;8.48;5.40;;;;;;;;;;5054594;28;20021;-80
2020/12/23 10:30:55;;;;;;;8.23;5.00;;;;;;;;;;5053168;28;20045;-79
2020/12/23 10:33:21;;;;;;;8.82;5.43;;;;;;;;;;5052729;28;20484;-78
2020/12/23 10:35:47;;;;;;;9.38;6.63;;;;;;;;;;5053796;28;20018;-78
2020/12/23 10:38:13;;;;;;;9.73;5.50;;;;;;;;;;5054043;28;20036;-79
2020/12/23 10:40:39;;;;;;;9.50;6.45;;;;;;;;;;5054027;28;20024;-79
2020/12/23 10:43:05;;;;;;;9.77;6.38;;;;;;;;;;5052385;28;20021;-80
2020/12/23 10:45:31;;;;;;;7.88;4.97;;;;;;;;;;5052482;28;20052;-80
2020/12/23 10:47:57;;;;;;;9.77;5.80;;;;;;;;;;5052300;28;20029;-82
2020/12/23 10:50:23;;;;;;;10.15;5.82;;;;;;;;;;5051970;28;20373;-80
2020/12/23 10:52:49;;;;;;;8.52;4.97;;;;;;;;;;5054043;28;20021;-81
2020/12/23 10:55:15;;;;;;;7.93;4.85;;;;;;;;;;5051905;28;20020;-79
2020/12/23 10:57:41;;;;;;;12.63;5.55;;;;;;;;;;5052338;28;20056;-81
2020/12/23 11:00:07;;;;;;;6.57;4.22;;;;;;;;;;5052149;28;20078;-81
2020/12/23 11:02:34;;;;;;;9.13;6.57;;;;;;;;;;5052514;28;20090;-78
2020/12/23 11:05:00;;;;;;;9.13;4.40;;;;;;;;;;5052375;28;20044;-78
2020/12/23 11:07:26;;;;;;;9.45;6.93;;;;;;;;;;5051678;28;20029;-79
2020/12/23 11:09:52;;;;;;;8.07;5.57;;;;;;;;;;5052156;28;20017;-82
2020/12/23 11:12:18;;;;;;;8.98;6.05;;;;;;;;;;5051657;28;20128;-82
2020/12/23 11:14:45;;;;;;;10.02;6.03;;;;;;;;;;5053420;28;20220;-82
2020/12/23 11:17:11;;;;;;;11.25;7.30;;;;;;;;;;5051509;28;20021;-82
2020/12/23 11:19:37;;;;;;;6.00;4.10;;;;;;;;;;5053527;28;20016;-82
2020/12/23 11:22:03;;;;;;;6.82;3.58;;;;;;;;;;5051657;28;20021;-82
2020/12/23 11:24:29;;;;;;;9.63;6.30;;;;;;;;;;5053177;28;20446;-81
2020/12/23 11:26:55;;;;;;;6.53;3.72;;;;;;;;;;5053088;28;20021;-83
2020/12/23 11:29:21;;;;;;;7.63;3.90;;;;;;;;;;5051647;28;20021;-79
2020/12/23 11:31:50;;;;;;;10.45;6.78;;;;;;;;;;5050643;28;20052;-79
2020/12/23 11:34:16;;;;;;;8.30;5.93;;;;;;;;;;5052738;28;20036;-79
2020/12/23 11:36:42;;;;;;;10.70;6.93;;;;;;;;;;5051589;28;20025;-80
2020/12/23 11:39:08;;;;;;;11.43;8.15;;;;;;;;;;5051444;28;20165;-80
2020/12/23 11:41:35;;;;;;;8.75;6.60;;;;;;;;;;5051599;28;20041;-80
2020/12/23 11:44:01;;;;;;;8.55;6.15;;;;;;;;;;5052810;28;20013;-80
2020/12/23 11:46:29;;;;;;;7.47;5.20;;;;;;;;;;5050980;28;20032;-78
2020/12/23 11:48:59;;;;;;;10.45;6.93;;;;;;;;;;5051505;28;20020;-78
2020/12/23 11:51:25;;;;;;;7.60;5.32;;;;;;;;;;5052557;28;20057;-77
2020/12/23 11:53:51;;;;;;;12.75;8.77;;;;;;;;;;5052507;28;20085;-77
2020/12/23 11:56:18;;;;;;;9.98;7.20;;;;;;;;;;5052326;28;20024;-79
2020/12/23 11:58:44;;;;;;;9.68;6.90;;;;;;;;;;5052635;28;20021;-79
2020/12/23 12:01:10;;;;;;;6.30;4.32;;;;;;;;;;5051191;28;20021;-82
2020/12/23 12:03:36;;;;;;;10.40;7.10;;;;;;;;;;5052464;28;20044;-81
2020/12/23 12:06:02;;;;;;;7.05;2.97;;;;;;;;;;5051437;28;20350;-80
2020/12/23 12:08:30;;;;;;;7.07;4.57;;;;;;;;;;5051016;28;20044;-81
2020/12/23 12:10:56;;;;;;;6.85;4.40;;;;;;;;;;5051031;28;20023;-81
2020/12/23 12:13:22;;;;;;;4.95;3.00;;;;;;;;;;5050899;28;20032;-81
2020/12/23 12:15:48;;;;;;;9.40;6.13;;;;;;;;;;5051045;28;20017;-83
2020/12/23 12:18:14;;;;;;;11.05;6.40;;;;;;;;;;5050724;28;20020;-81
2020/12/23 12:20:40;;;;;;;8.20;6.38;;;;;;;;;;5052132;28;20450;-84
2020/12/23 12:23:06;;;;;;;7.07;4.78;;;;;;;;;;5050681;28;20357;-82
2020/12/23 12:25:34;;;;;;;8.60;5.43;;;;;;;;;;5050866;28;20013;-79
2020/12/23 12:28:02;;;;;;;6.53;4.78;;;;;;;;;;5050730;28;20025;-79
2020/12/23 12:30:28;;;;;;;9.20;6.00;;;;;;;;;;5051988;28;20044;-78
2020/12/23 12:32:54;;;;;;;6.80;3.25;;;;;;;;;;5052215;28;20013;-79
2020/12/23 12:35:20;;;;;;;8.43;5.60;;;;;;;;;;5050344;28;20021;-79
2020/12/23 12:37:46;;;;;;;10.40;5.75;;;;;;;;;;5052012;28;20021;-79
2020/12/23 12:40:12;;;;;;;9.10;6.43;;;;;;;;;;5050455;28;20389;-79
2020/12/23 12:42:38;;;;;;;7.15;4.90;;;;;;;;;;5050581;28;20048;-78
2020/12/23 12:45:04;;;;;;;8.35;5.32;;;;;;;;;;5051415;28;20048;-79
2020/12/23 12:47:30;;;;;;;6.43;3.55;;;;;;;;;;5050467;28;20032;-81
2020/12/23 12:49:56;;;;;;;5.30;3.45;;;;;;;;;;5050583;28;20028;-81
2020/12/23 12:52:22;;;;;;;5.07;3.55;;;;;;;;;;5050041;28;20351;-81
2020/12/23 12:54:48;;;;;;;3.15;1.88;;;;;;;;;;5050265;28;20042;-80
2020/12/23 12:57:14;;;;;;;4.68;3.25;;;;;;;;;;5050328;28;20033;-81
2020/12/23 12:59:40;;;;;;;9.10;5.25;;;;;;;;;;5050424;28;20104;-80
2020/12/23 13:02:08;;;;;;;6.90;4.43;;;;;;;;;;5051462;28;20496;-80
2020/12/23 13:04:34;;;;;;;7.75;4.70;;;;;;;;;;5050487;28;20364;-82
2020/12/23 13:07:00;;;;;;;6.07;4.30;;;;;;;;;;5050294;28;20116;-81
2020/12/23 13:09:26;;;;;;;5.03;3.25;;;;;;;;;;5050041;28;20031;-80
2020/12/23 13:11:58;;;;;;;7.82;3.58;;;;;;;;;;5050377;28;20015;-79
2020/12/23 13:14:24;;;;;;;6.32;4.72;;;;;;;;;;5051616;28;20021;-79
2020/12/23 13:16:50;;;;;;;6.70;3.55;;;;;;;;;;5051568;28;20090;-79
2020/12/23 13:19:16;;;;;;;7.22;4.13;;;;;;;;;;5049982;28;20021;-81
2020/12/23 13:21:42;;;;;;;4.60;3.05;;;;;;;;;;5050257;28;20017;-79
2020/12/23 13:24:10;;;;;;;4.05;2.67;;;;;;;;;;5050412;28;20032;-81
2020/12/23 13:26:36;;;;;;;4.78;2.80;;;;;;;;;;5070169;28;20012;-79
2020/12/23 13:29:03;;;;;;;5.55;3.83;;;;;;;;;;5070124;28;20047;-80
2020/12/23 13:31:29;;;;;;;7.75;4.68;;;;;;;;;;5069797;28;20090;-83
2020/12/23 13:33:57;;;;;;;6.32;3.97;;;;;;;;;;5070098;28;20027;-82
2020/12/23 13:36:23;;;;;;;5.40;3.28;;;;;;;;;;5071235;28;20017;-81
2020/12/23 13:38:49;;;;;;;6.28;4.28;;;;;;;;;;5070237;28;20043;-78
2020/12/23 13:41:15;;;;;;;4.60;2.72;;;;;;;;;;5071410;28;20017;-78
2020/12/23 13:43:42;;;;;;;4.35;2.95;;;;;;;;;;5069988;28;20020;-79
2020/12/23 13:46:08;;;;;;;4.82;3.47;;;;;;;;;;5069679;28;20025;-80
2020/12/23 13:48:34;;;;;;;5.22;3.15;;;;;;;;;;5069142;28;20064;-80
2020/12/23 13:51:00;;;;;;;10.45;3.55;;;;;;;;;;5066349;28;20040;-84
2020/12/23 13:53:26;;;;;;;9.07;3.70;;;;;;;;;;5058180;28;20116;-82
2020/12/23 13:55:52;;;;;;;5.28;3.50;;;;;;;;;;5063756;28;20535;-84
2020/12/23 13:58:18;;;;;;;4.70;3.15;;;;;;;;;;5063952;28;20456;-86
2020/12/23 14:00:44;;;;;;;4.82;3.05;;;;;;;;;;5068612;28;20027;-83
2020/12/23 14:03:10;;;;;;;5.07;2.38;;;;;;;;;;5064286;28;20024;-83
2020/12/23 14:05:36;;;;;;;4.18;2.50;;;;;;;;;;5065889;28;20020;-83
2020/12/23 14:08:02;;;;;;;4.90;2.90;;;;;;;;;;5061666;28;20065;-82
2020/12/23 14:10:29;;;;;;;5.90;3.03;;;;;;;;;;5061853;28;20020;-82
2020/12/23 14:12:55;;;;;;;4.43;2.47;;;;;;;;;;5056520;28;20013;-81
2020/12/23 14:15:25;;;;;;;5.47;1.70;;;;;;;;;;5053521;28;20334;-81
2020/12/23 14:17:51;;;;;;;5.20;2.90;;;;;;;;;;5067654;28;20020;-83
2020/12/23 14:20:17;;;;;;;3.90;2.60;;;;;;;;;;5073237;28;20479;-81
2020/12/23 14:22:43;;;;;;;5.57;2.45;;;;;;;;;;5073085;28;20091;-81